52分钟前
罗盘
风向 的 风向 270° Ottawa / Embrun Airport 8/26
风: 3 千吨, 1 beaufort
0 500 1.500 3.000 5.000 8.000 10.000
FEW 5.000 ft
FEW 9.000 ft
SCT 21.000 ft
BKN 25.000 ft
METAR CYOW 301200Z 27003KT 15SM FEW050 FEW090 SCT210 BKN250 M06/M08 A2990 RMK SC1AC1CI2CI3 SC TR FROIN SLP134

METAR定义 | 嵌入

24小时趋势

航班类别VFRLIFR
温度-2 °C-7 °C
风速6 千吨0 千吨
能见度24 公里0 米

更多历史数据

下载我们的安卓应用程序

从你的主屏幕上轻松地访问你的航空天气。
只需一次付费,您就可以获得无广告的体验。

您会帮助我们保持Metar-Taf.com正常运行吗?
您的贡献有助于网站的进一步开发并支付费用。

没有更多广告

您是捐款5美元还是更多?然后,我们将永远不会再向您展示广告,这是我们永恒的感谢!
捐赠前先登录

METAR Ottawa / Embrun Airport

Ottawa / Embrun Airport是Embrun,加拿大中的小机场。 机场有{a,plural,=1{一条跑道} other{#跑道}}: 8/26

Ottawa / Embrun Airport最近未发布观察结果。相反,我们向您显示30 km的报告渥太华麦克唐纳-卡蒂埃国际机场。 该报告是针对2021年11月30日 07:00, 当地时间进行的。

机场观察

风来自西 (270°)方向,速度为3 千吨。

可见度为24 公里。

有几云在5.000 ft的高度, 几云在9.000 ft的高度, 疏云,零星散落的云朵在21.000 ft的高度 和 碎云在25.000 ft的高度。 破损或更高的上限为25.000 ft。

温度为-6 °C,阵风为-11 °C。 露点为-8 °C,相对湿度为86%。 海平面上的气压为1013 压力 (QNH)。

评论

  • 海平面压力为1013,4 压力 (SLP134)
  • SC1AC1CI2CI3 SC TR FROIN

白天

今天,太阳从07:19升起,在16:20降落。 这适用于Ottawa / Embrun Airport,世界夏令时可能有所不同。 当地时间与世界标准时间之间的时差为-5 小时。 当前,没有夏令时有效。

公司介绍

我们没有关于这个机场的公司信息。

体会

到Vliegles.nl去找飞行课程,跳伞和其他飞行体验。 浏览页面,了解Ottawa / Embrun Airport附近所有可用的活动。 你也可以使用搜索功能来寻找你所在地附近的特定飞行课程、跳伞或其他飞行体验。

您是否要在网站上Ottawa / Embrun Airport飞行的天气? 阅读更多   自由!